sensor_id;sensor_type;location;lat;lon;timestamp;P1;durP1;ratioP1;P2;durP2;ratioP2
67861;SDS011;54665;51.462;6.698;2024-03-02T00:01:51;2.20;;;0.90;;
67861;SDS011;54665;51.462;6.698;2024-03-02T00:03:51;2.33;;;0.97;;
67861;SDS011;54665;51.462;6.698;2024-03-02T00:05:51;1.67;;;0.77;;
67861;SDS011;54665;51.462;6.698;2024-03-02T00:07:52;3.17;;;0.90;;
67861;SDS011;54665;51.462;6.698;2024-03-02T00:09:56;3.35;;;0.95;;
67861;SDS011;54665;51.462;6.698;2024-03-02T00:11:57;3.33;;;1.10;;
67861;SDS011;54665;51.462;6.698;2024-03-02T00:13:58;2.57;;;0.90;;
67861;SDS011;54665;51.462;6.698;2024-03-02T00:15:58;1.93;;;0.83;;
67861;SDS011;54665;51.462;6.698;2024-03-02T00:17:58;2.03;;;1.00;;
67861;SDS011;54665;51.462;6.698;2024-03-02T00:19:59;2.07;;;0.90;;
67861;SDS011;54665;51.462;6.698;2024-03-02T00:22:00;2.30;;;0.70;;
67861;SDS011;54665;51.462;6.698;2024-03-02T00:24:01;1.98;;;0.80;;
67861;SDS011;54665;51.462;6.698;2024-03-02T00:26:17;2.00;;;0.93;;
67861;SDS011;54665;51.462;6.698;2024-03-02T00:28:19;2.30;;;0.90;;
67861;SDS011;54665;51.462;6.698;2024-03-02T00:32:55;2.35;;;0.90;;
67861;SDS011;54665;51.462;6.698;2024-03-02T00:34:56;2.50;;;1.00;;
67861;SDS011;54665;51.462;6.698;2024-03-02T00:36:59;2.27;;;1.00;;
67861;SDS011;54665;51.462;6.698;2024-03-02T00:38:59;2.15;;;0.90;;
67861;SDS011;54665;51.462;6.698;2024-03-02T00:41:06;3.37;;;1.00;;
67861;SDS011;54665;51.462;6.698;2024-03-02T00:43:09;2.10;;;0.80;;
67861;SDS011;54665;51.462;6.698;2024-03-02T00:45:32;2.85;;;1.00;;
67861;SDS011;54665;51.462;6.698;2024-03-02T00:47:32;2.93;;;1.00;;
67861;SDS011;54665;51.462;6.698;2024-03-02T00:49:38;3.00;;;0.98;;
67861;SDS011;54665;51.462;6.698;2024-03-02T00:51:39;4.77;;;1.00;;
67861;SDS011;54665;51.462;6.698;2024-03-02T00:53:39;4.15;;;1.02;;
67861;SDS011;54665;51.462;6.698;2024-03-02T00:55:39;2.53;;;1.00;;
67861;SDS011;54665;51.462;6.698;2024-03-02T00:57:40;2.77;;;1.07;;
67861;SDS011;54665;51.462;6.698;2024-03-02T00:59:40;2.30;;;0.90;;
67861;SDS011;54665;51.462;6.698;2024-03-02T01:01:40;3.13;;;0.97;;
67861;SDS011;54665;51.462;6.698;2024-03-02T01:03:41;2.92;;;0.93;;
67861;SDS011;54665;51.462;6.698;2024-03-02T01:05:42;3.07;;;1.20;;
67861;SDS011;54665;51.462;6.698;2024-03-02T01:07:43;3.80;;;1.20;;
67861;SDS011;54665;51.462;6.698;2024-03-02T01:09:43;3.30;;;1.20;;
67861;SDS011;54665;51.462;6.698;2024-03-02T01:11:43;4.40;;;1.50;;
67861;SDS011;54665;51.462;6.698;2024-03-02T01:13:44;2.23;;;1.00;;
67861;SDS011;54665;51.462;6.698;2024-03-02T01:15:45;3.50;;;1.40;;
67861;SDS011;54665;51.462;6.698;2024-03-02T01:17:45;3.17;;;1.17;;
67861;SDS011;54665;51.462;6.698;2024-03-02T01:19:45;3.73;;;1.17;;
67861;SDS011;54665;51.462;6.698;2024-03-02T01:21:45;2.57;;;0.80;;
67861;SDS011;54665;51.462;6.698;2024-03-02T01:23:46;3.45;;;1.00;;
67861;SDS011;54665;51.462;6.698;2024-03-02T01:25:46;3.97;;;1.00;;
67861;SDS011;54665;51.462;6.698;2024-03-02T01:27:47;3.57;;;1.20;;
67861;SDS011;54665;51.462;6.698;2024-03-02T01:29:47;3.60;;;0.97;;
67861;SDS011;54665;51.462;6.698;2024-03-02T01:31:47;3.97;;;1.30;;
67861;SDS011;54665;51.462;6.698;2024-03-02T01:33:48;3.17;;;1.10;;
67861;SDS011;54665;51.462;6.698;2024-03-02T01:35:48;3.67;;;1.07;;
67861;SDS011;54665;51.462;6.698;2024-03-02T01:37:48;5.93;;;1.60;;
67861;SDS011;54665;51.462;6.698;2024-03-02T01:39:49;3.40;;;1.20;;
67861;SDS011;54665;51.462;6.698;2024-03-02T01:41:49;3.50;;;1.30;;
67861;SDS011;54665;51.462;6.698;2024-03-02T01:43:49;4.33;;;1.17;;
67861;SDS011;54665;51.462;6.698;2024-03-02T01:45:49;5.20;;;1.37;;
67861;SDS011;54665;51.462;6.698;2024-03-02T01:47:50;3.70;;;1.10;;
67861;SDS011;54665;51.462;6.698;2024-03-02T01:49:50;3.53;;;1.60;;
67861;SDS011;54665;51.462;6.698;2024-03-02T01:51:50;4.35;;;1.15;;
67861;SDS011;54665;51.462;6.698;2024-03-02T01:53:51;4.23;;;1.27;;
67861;SDS011;54665;51.462;6.698;2024-03-02T01:55:51;3.47;;;1.30;;
67861;SDS011;54665;51.462;6.698;2024-03-02T01:57:51;5.13;;;1.83;;
67861;SDS011;54665;51.462;6.698;2024-03-02T01:59:52;7.53;;;3.00;;
67861;SDS011;54665;51.462;6.698;2024-03-02T02:01:52;16.80;;;4.65;;
67861;SDS011;54665;51.462;6.698;2024-03-02T02:03:52;14.13;;;5.13;;
67861;SDS011;54665;51.462;6.698;2024-03-02T02:05:53;16.83;;;7.00;;
67861;SDS011;54665;51.462;6.698;2024-03-02T02:07:53;15.43;;;6.40;;
67861;SDS011;54665;51.462;6.698;2024-03-02T02:09:53;17.43;;;6.20;;
67861;SDS011;54665;51.462;6.698;2024-03-02T02:11:54;11.57;;;4.83;;
67861;SDS011;54665;51.462;6.698;2024-03-02T02:13:54;8.32;;;3.40;;
67861;SDS011;54665;51.462;6.698;2024-03-02T02:15:55;7.57;;;3.23;;
67861;SDS011;54665;51.462;6.698;2024-03-02T02:17:55;9.37;;;3.47;;
67861;SDS011;54665;51.462;6.698;2024-03-02T02:19:56;7.53;;;2.70;;
67861;SDS011;54665;51.462;6.698;2024-03-02T02:21:56;6.83;;;2.57;;
67861;SDS011;54665;51.462;6.698;2024-03-02T02:23:57;5.30;;;1.77;;
67861;SDS011;54665;51.462;6.698;2024-03-02T02:25:57;5.53;;;1.77;;
67861;SDS011;54665;51.462;6.698;2024-03-02T02:27:58;6.07;;;1.80;;
67861;SDS011;54665;51.462;6.698;2024-03-02T02:29:58;4.57;;;1.40;;
67861;SDS011;54665;51.462;6.698;2024-03-02T02:31:58;3.90;;;1.23;;
67861;SDS011;54665;51.462;6.698;2024-03-02T02:33:59;4.77;;;1.30;;
67861;SDS011;54665;51.462;6.698;2024-03-02T02:35:59;5.07;;;1.63;;
67861;SDS011;54665;51.462;6.698;2024-03-02T02:37:59;4.93;;;1.40;;
67861;SDS011;54665;51.462;6.698;2024-03-02T02:39:59;3.30;;;1.40;;
67861;SDS011;54665;51.462;6.698;2024-03-02T02:42:00;5.07;;;1.40;;
67861;SDS011;54665;51.462;6.698;2024-03-02T02:44:00;4.97;;;1.37;;
67861;SDS011;54665;51.462;6.698;2024-03-02T02:46:00;3.67;;;1.40;;
67861;SDS011;54665;51.462;6.698;2024-03-02T02:48:01;4.03;;;1.30;;
67861;SDS011;54665;51.462;6.698;2024-03-02T02:50:04;3.20;;;1.30;;
67861;SDS011;54665;51.462;6.698;2024-03-02T02:52:07;2.87;;;1.20;;
67861;SDS011;54665;51.462;6.698;2024-03-02T02:54:07;2.60;;;1.23;;
67861;SDS011;54665;51.462;6.698;2024-03-02T02:56:07;4.03;;;1.13;;
67861;SDS011;54665;51.462;6.698;2024-03-02T02:58:08;4.63;;;1.43;;
67861;SDS011;54665;51.462;6.698;2024-03-02T03:00:09;4.60;;;1.43;;
67861;SDS011;54665;51.462;6.698;2024-03-02T03:02:11;4.13;;;1.40;;
67861;SDS011;54665;51.462;6.698;2024-03-02T03:04:11;4.80;;;1.50;;
67861;SDS011;54665;51.462;6.698;2024-03-02T03:06:11;4.27;;;1.47;;
67861;SDS011;54665;51.462;6.698;2024-03-02T03:08:12;5.03;;;1.53;;
67861;SDS011;54665;51.462;6.698;2024-03-02T03:10:12;3.87;;;1.40;;
67861;SDS011;54665;51.462;6.698;2024-03-02T03:12:13;3.30;;;1.10;;
67861;SDS011;54665;51.462;6.698;2024-03-02T03:14:13;2.83;;;1.10;;
67861;SDS011;54665;51.462;6.698;2024-03-02T03:16:13;3.10;;;1.00;;
67861;SDS011;54665;51.462;6.698;2024-03-02T03:18:13;2.50;;;1.00;;
67861;SDS011;54665;51.462;6.698;2024-03-02T03:20:14;3.30;;;0.90;;
67861;SDS011;54665;51.462;6.698;2024-03-02T03:22:14;2.13;;;0.80;;
67861;SDS011;54665;51.462;6.698;2024-03-02T03:24:14;2.40;;;0.90;;
67861;SDS011;54665;51.462;6.698;2024-03-02T03:26:15;2.67;;;0.77;;
67861;SDS011;54665;51.462;6.698;2024-03-02T03:28:15;2.70;;;0.90;;
67861;SDS011;54665;51.462;6.698;2024-03-02T03:30:15;2.07;;;0.97;;
67861;SDS011;54665;51.462;6.698;2024-03-02T03:32:16;2.90;;;1.27;;
67861;SDS011;54665;51.462;6.698;2024-03-02T03:34:16;3.23;;;1.30;;
67861;SDS011;54665;51.462;6.698;2024-03-02T03:36:16;2.60;;;1.10;;
67861;SDS011;54665;51.462;6.698;2024-03-02T03:38:16;3.33;;;1.40;;
67861;SDS011;54665;51.462;6.698;2024-03-02T03:40:17;3.83;;;1.65;;
67861;SDS011;54665;51.462;6.698;2024-03-02T03:42:17;4.70;;;1.60;;
67861;SDS011;54665;51.462;6.698;2024-03-02T03:44:17;3.50;;;1.63;;
67861;SDS011;54665;51.462;6.698;2024-03-02T03:46:18;3.90;;;1.30;;
67861;SDS011;54665;51.462;6.698;2024-03-02T03:48:18;4.77;;;1.30;;
67861;SDS011;54665;51.462;6.698;2024-03-02T03:50:18;3.57;;;1.37;;
67861;SDS011;54665;51.462;6.698;2024-03-02T03:52:18;3.13;;;0.93;;
67861;SDS011;54665;51.462;6.698;2024-03-02T03:54:19;3.20;;;1.10;;
67861;SDS011;54665;51.462;6.698;2024-03-02T03:56:19;3.43;;;1.00;;
67861;SDS011;54665;51.462;6.698;2024-03-02T03:58:19;3.63;;;1.20;;
67861;SDS011;54665;51.462;6.698;2024-03-02T04:00:20;3.13;;;1.00;;
67861;SDS011;54665;51.462;6.698;2024-03-02T04:02:20;2.87;;;1.20;;
67861;SDS011;54665;51.462;6.698;2024-03-02T04:04:20;2.17;;;0.87;;
67861;SDS011;54665;51.462;6.698;2024-03-02T04:06:21;2.57;;;0.90;;
67861;SDS011;54665;51.462;6.698;2024-03-02T04:08:21;2.70;;;1.07;;
67861;SDS011;54665;51.462;6.698;2024-03-02T04:10:21;3.87;;;0.80;;
67861;SDS011;54665;51.462;6.698;2024-03-02T04:12:22;5.03;;;1.10;;
67861;SDS011;54665;51.462;6.698;2024-03-02T04:14:22;3.42;;;1.00;;
67861;SDS011;54665;51.462;6.698;2024-03-02T04:16:22;6.37;;;1.33;;
67861;SDS011;54665;51.462;6.698;2024-03-02T04:18:22;3.50;;;1.10;;
67861;SDS011;54665;51.462;6.698;2024-03-02T04:20:23;2.83;;;1.10;;
67861;SDS011;54665;51.462;6.698;2024-03-02T04:22:23;4.20;;;1.37;;
67861;SDS011;54665;51.462;6.698;2024-03-02T04:24:23;3.60;;;1.37;;
67861;SDS011;54665;51.462;6.698;2024-03-02T04:26:24;3.50;;;1.10;;
67861;SDS011;54665;51.462;6.698;2024-03-02T04:28:25;2.75;;;1.10;;
67861;SDS011;54665;51.462;6.698;2024-03-02T04:30:25;5.13;;;1.10;;
67861;SDS011;54665;51.462;6.698;2024-03-02T04:32:26;4.27;;;1.30;;
67861;SDS011;54665;51.462;6.698;2024-03-02T04:34:27;3.70;;;1.20;;
67861;SDS011;54665;51.462;6.698;2024-03-02T04:36:27;3.27;;;1.27;;
67861;SDS011;54665;51.462;6.698;2024-03-02T04:38:28;4.63;;;0.90;;
67861;SDS011;54665;51.462;6.698;2024-03-02T04:40:28;3.60;;;1.03;;
67861;SDS011;54665;51.462;6.698;2024-03-02T04:42:28;2.57;;;0.97;;
67861;SDS011;54665;51.462;6.698;2024-03-02T04:44:28;3.47;;;1.00;;
67861;SDS011;54665;51.462;6.698;2024-03-02T04:46:29;3.40;;;1.10;;
67861;SDS011;54665;51.462;6.698;2024-03-02T04:48:29;2.97;;;1.00;;
67861;SDS011;54665;51.462;6.698;2024-03-02T04:50:29;1.90;;;0.90;;
67861;SDS011;54665;51.462;6.698;2024-03-02T04:52:29;4.57;;;1.00;;
67861;SDS011;54665;51.462;6.698;2024-03-02T04:54:30;5.00;;;1.10;;
67861;SDS011;54665;51.462;6.698;2024-03-02T04:56:30;2.83;;;1.10;;
67861;SDS011;54665;51.462;6.698;2024-03-02T04:58:30;4.67;;;1.30;;
67861;SDS011;54665;51.462;6.698;2024-03-02T05:00:31;3.83;;;1.37;;
67861;SDS011;54665;51.462;6.698;2024-03-02T05:02:31;5.87;;;1.57;;
67861;SDS011;54665;51.462;6.698;2024-03-02T05:04:31;3.47;;;1.30;;
67861;SDS011;54665;51.462;6.698;2024-03-02T05:06:31;4.15;;;1.40;;
67861;SDS011;54665;51.462;6.698;2024-03-02T05:08:32;3.90;;;1.43;;
67861;SDS011;54665;51.462;6.698;2024-03-02T05:10:32;4.67;;;1.40;;
67861;SDS011;54665;51.462;6.698;2024-03-02T05:12:32;4.83;;;1.60;;
67861;SDS011;54665;51.462;6.698;2024-03-02T05:14:32;3.73;;;1.60;;
67861;SDS011;54665;51.462;6.698;2024-03-02T05:16:33;5.57;;;1.50;;
67861;SDS011;54665;51.462;6.698;2024-03-02T05:18:34;3.30;;;1.42;;
67861;SDS011;54665;51.462;6.698;2024-03-02T05:20:37;4.25;;;1.58;;
67861;SDS011;54665;51.462;6.698;2024-03-02T05:22:37;4.07;;;1.60;;
67861;SDS011;54665;51.462;6.698;2024-03-02T05:24:38;6.87;;;1.73;;
67861;SDS011;54665;51.462;6.698;2024-03-02T05:26:38;3.97;;;1.30;;
67861;SDS011;54665;51.462;6.698;2024-03-02T05:28:38;3.80;;;1.30;;
67861;SDS011;54665;51.462;6.698;2024-03-02T05:30:39;5.97;;;1.40;;
67861;SDS011;54665;51.462;6.698;2024-03-02T05:32:39;5.23;;;1.73;;
67861;SDS011;54665;51.462;6.698;2024-03-02T05:34:39;4.10;;;1.40;;
67861;SDS011;54665;51.462;6.698;2024-03-02T05:36:39;5.73;;;1.80;;
67861;SDS011;54665;51.462;6.698;2024-03-02T05:38:40;4.80;;;1.60;;
67861;SDS011;54665;51.462;6.698;2024-03-02T05:40:40;6.57;;;2.10;;
67861;SDS011;54665;51.462;6.698;2024-03-02T05:42:40;4.27;;;1.70;;
67861;SDS011;54665;51.462;6.698;2024-03-02T05:44:41;5.50;;;1.80;;
67861;SDS011;54665;51.462;6.698;2024-03-02T05:46:41;3.50;;;1.38;;
67861;SDS011;54665;51.462;6.698;2024-03-02T05:48:41;3.17;;;1.53;;
67861;SDS011;54665;51.462;6.698;2024-03-02T05:50:42;3.27;;;1.40;;
67861;SDS011;54665;51.462;6.698;2024-03-02T05:52:42;3.47;;;1.20;;
67861;SDS011;54665;51.462;6.698;2024-03-02T05:54:42;4.10;;;1.20;;
67861;SDS011;54665;51.462;6.698;2024-03-02T05:56:43;2.23;;;1.17;;
67861;SDS011;54665;51.462;6.698;2024-03-02T05:58:43;4.47;;;1.20;;
67861;SDS011;54665;51.462;6.698;2024-03-02T06:00:43;3.35;;;1.20;;
67861;SDS011;54665;51.462;6.698;2024-03-02T06:02:43;3.70;;;1.30;;
67861;SDS011;54665;51.462;6.698;2024-03-02T06:04:44;4.43;;;1.40;;
67861;SDS011;54665;51.462;6.698;2024-03-02T06:06:44;3.67;;;1.30;;
67861;SDS011;54665;51.462;6.698;2024-03-02T06:08:44;4.57;;;1.20;;
67861;SDS011;54665;51.462;6.698;2024-03-02T06:10:44;4.00;;;1.40;;
67861;SDS011;54665;51.462;6.698;2024-03-02T06:12:45;3.50;;;1.17;;
67861;SDS011;54665;51.462;6.698;2024-03-02T06:14:45;2.97;;;1.30;;
67861;SDS011;54665;51.462;6.698;2024-03-02T06:16:45;3.80;;;1.50;;
67861;SDS011;54665;51.462;6.698;2024-03-02T06:18:45;3.27;;;1.30;;
67861;SDS011;54665;51.462;6.698;2024-03-02T06:20:46;4.78;;;1.52;;
67861;SDS011;54665;51.462;6.698;2024-03-02T06:22:46;3.57;;;1.47;;
67861;SDS011;54665;51.462;6.698;2024-03-02T06:24:46;3.07;;;1.10;;
67861;SDS011;54665;51.462;6.698;2024-03-02T06:26:47;3.27;;;1.30;;
67861;SDS011;54665;51.462;6.698;2024-03-02T06:28:47;2.90;;;1.23;;
67861;SDS011;54665;51.462;6.698;2024-03-02T06:30:47;3.57;;;1.30;;
67861;SDS011;54665;51.462;6.698;2024-03-02T06:32:47;3.33;;;1.20;;
67861;SDS011;54665;51.462;6.698;2024-03-02T06:34:48;3.23;;;1.20;;
67861;SDS011;54665;51.462;6.698;2024-03-02T06:36:48;3.20;;;1.47;;
67861;SDS011;54665;51.462;6.698;2024-03-02T06:38:48;4.13;;;1.50;;
67861;SDS011;54665;51.462;6.698;2024-03-02T06:40:49;3.15;;;1.35;;
67861;SDS011;54665;51.462;6.698;2024-03-02T06:42:49;3.80;;;1.40;;
67861;SDS011;54665;51.462;6.698;2024-03-02T06:44:49;2.60;;;1.00;;
67861;SDS011;54665;51.462;6.698;2024-03-02T06:46:50;2.93;;;1.30;;
67861;SDS011;54665;51.462;6.698;2024-03-02T06:48:50;3.97;;;1.40;;
67861;SDS011;54665;51.462;6.698;2024-03-02T06:50:50;4.03;;;1.40;;
67861;SDS011;54665;51.462;6.698;2024-03-02T06:52:50;5.07;;;1.57;;
67861;SDS011;54665;51.462;6.698;2024-03-02T06:54:51;2.83;;;1.20;;
67861;SDS011;54665;51.462;6.698;2024-03-02T06:56:51;4.13;;;1.38;;
67861;SDS011;54665;51.462;6.698;2024-03-02T06:58:51;4.03;;;1.33;;
67861;SDS011;54665;51.462;6.698;2024-03-02T07:00:52;3.87;;;1.40;;
67861;SDS011;54665;51.462;6.698;2024-03-02T07:02:52;2.93;;;1.37;;
67861;SDS011;54665;51.462;6.698;2024-03-02T07:04:55;3.63;;;1.20;;
67861;SDS011;54665;51.462;6.698;2024-03-02T07:06:56;4.28;;;1.20;;
67861;SDS011;54665;51.462;6.698;2024-03-02T07:08:56;4.30;;;1.50;;
67861;SDS011;54665;51.462;6.698;2024-03-02T07:10:56;2.93;;;1.30;;
67861;SDS011;54665;51.462;6.698;2024-03-02T07:12:56;3.37;;;1.30;;
67861;SDS011;54665;51.462;6.698;2024-03-02T07:14:57;4.37;;;1.40;;
67861;SDS011;54665;51.462;6.698;2024-03-02T07:16:57;4.28;;;1.23;;
67861;SDS011;54665;51.462;6.698;2024-03-02T07:18:57;4.07;;;1.30;;
67861;SDS011;54665;51.462;6.698;2024-03-02T07:20:58;3.83;;;1.10;;
67861;SDS011;54665;51.462;6.698;2024-03-02T07:22:59;3.90;;;1.60;;
67861;SDS011;54665;51.462;6.698;2024-03-02T07:24:59;3.83;;;1.45;;
67861;SDS011;54665;51.462;6.698;2024-03-02T07:26:59;5.10;;;1.57;;
67861;SDS011;54665;51.462;6.698;2024-03-02T07:28:59;2.63;;;1.30;;
67861;SDS011;54665;51.462;6.698;2024-03-02T07:31:03;3.30;;;1.65;;
67861;SDS011;54665;51.462;6.698;2024-03-02T07:33:04;3.03;;;1.40;;
67861;SDS011;54665;51.462;6.698;2024-03-02T07:35:04;3.45;;;1.40;;
67861;SDS011;54665;51.462;6.698;2024-03-02T07:37:05;5.83;;;1.70;;
67861;SDS011;54665;51.462;6.698;2024-03-02T07:39:06;5.30;;;1.88;;
67861;SDS011;54665;51.462;6.698;2024-03-02T07:41:07;5.63;;;2.03;;
67861;SDS011;54665;51.462;6.698;2024-03-02T07:43:08;5.63;;;1.90;;
67861;SDS011;54665;51.462;6.698;2024-03-02T07:45:08;5.20;;;1.77;;
67861;SDS011;54665;51.462;6.698;2024-03-02T07:47:08;4.70;;;1.90;;
67861;SDS011;54665;51.462;6.698;2024-03-02T07:49:09;4.47;;;1.80;;
67861;SDS011;54665;51.462;6.698;2024-03-02T07:51:09;3.72;;;1.90;;
67861;SDS011;54665;51.462;6.698;2024-03-02T07:53:10;4.77;;;1.90;;
67861;SDS011;54665;51.462;6.698;2024-03-02T07:55:10;5.30;;;2.10;;
67861;SDS011;54665;51.462;6.698;2024-03-02T07:57:10;5.27;;;1.97;;
67861;SDS011;54665;51.462;6.698;2024-03-02T07:59:11;4.80;;;1.77;;
67861;SDS011;54665;51.462;6.698;2024-03-02T08:01:11;7.90;;;1.90;;
67861;SDS011;54665;51.462;6.698;2024-03-02T08:03:11;5.50;;;2.00;;
67861;SDS011;54665;51.462;6.698;2024-03-02T08:05:12;6.32;;;2.05;;
67861;SDS011;54665;51.462;6.698;2024-03-02T08:07:12;9.33;;;2.40;;
67861;SDS011;54665;51.462;6.698;2024-03-02T08:09:12;6.43;;;2.20;;
67861;SDS011;54665;51.462;6.698;2024-03-02T08:11:13;4.50;;;1.87;;
67861;SDS011;54665;51.462;6.698;2024-03-02T08:13:13;5.90;;;2.20;;
67861;SDS011;54665;51.462;6.698;2024-03-02T08:15:13;5.40;;;2.03;;
67861;SDS011;54665;51.462;6.698;2024-03-02T08:17:14;6.75;;;1.90;;
67861;SDS011;54665;51.462;6.698;2024-03-02T08:19:14;5.57;;;1.73;;
67861;SDS011;54665;51.462;6.698;2024-03-02T08:21:15;6.00;;;2.10;;
67861;SDS011;54665;51.462;6.698;2024-03-02T08:23:15;5.05;;;1.85;;
67861;SDS011;54665;51.462;6.698;2024-03-02T08:25:16;5.43;;;1.90;;
67861;SDS011;54665;51.462;6.698;2024-03-02T08:27:16;6.73;;;2.20;;
67861;SDS011;54665;51.462;6.698;2024-03-02T08:29:17;5.85;;;2.00;;
67861;SDS011;54665;51.462;6.698;2024-03-02T08:31:17;4.73;;;1.83;;
67861;SDS011;54665;51.462;6.698;2024-03-02T08:33:17;5.17;;;1.90;;
67861;SDS011;54665;51.462;6.698;2024-03-02T08:35:18;4.20;;;2.07;;
67861;SDS011;54665;51.462;6.698;2024-03-02T08:37:18;5.83;;;2.20;;
67861;SDS011;54665;51.462;6.698;2024-03-02T08:39:18;4.87;;;1.70;;
67861;SDS011;54665;51.462;6.698;2024-03-02T08:41:19;5.18;;;2.10;;
67861;SDS011;54665;51.462;6.698;2024-03-02T08:43:19;5.03;;;2.00;;
67861;SDS011;54665;51.462;6.698;2024-03-02T08:45:20;5.90;;;1.77;;
67861;SDS011;54665;51.462;6.698;2024-03-02T08:47:20;2.83;;;1.40;;
67861;SDS011;54665;51.462;6.698;2024-03-02T08:49:20;6.77;;;1.70;;
67861;SDS011;54665;51.462;6.698;2024-03-02T08:51:21;2.77;;;1.27;;
67861;SDS011;54665;51.462;6.698;2024-03-02T08:53:21;4.47;;;1.70;;
67861;SDS011;54665;51.462;6.698;2024-03-02T08:55:21;4.43;;;1.67;;
67861;SDS011;54665;51.462;6.698;2024-03-02T08:57:22;4.47;;;1.73;;
67861;SDS011;54665;51.462;6.698;2024-03-02T08:59:22;4.30;;;1.30;;
67861;SDS011;54665;51.462;6.698;2024-03-02T09:01:22;3.95;;;1.20;;
67861;SDS011;54665;51.462;6.698;2024-03-02T09:03:23;4.90;;;1.60;;
67861;SDS011;54665;51.462;6.698;2024-03-02T09:05:23;3.77;;;1.40;;
67861;SDS011;54665;51.462;6.698;2024-03-02T09:07:23;3.63;;;1.30;;
67861;SDS011;54665;51.462;6.698;2024-03-02T09:09:24;4.03;;;1.40;;
67861;SDS011;54665;51.462;6.698;2024-03-02T09:11:24;4.93;;;1.70;;
67861;SDS011;54665;51.462;6.698;2024-03-02T09:13:25;3.50;;;1.58;;
67861;SDS011;54665;51.462;6.698;2024-03-02T09:15:25;3.13;;;1.40;;
67861;SDS011;54665;51.462;6.698;2024-03-02T09:17:25;6.40;;;1.53;;
67861;SDS011;54665;51.462;6.698;2024-03-02T09:19:26;2.83;;;1.17;;
67861;SDS011;54665;51.462;6.698;2024-03-02T09:21:26;3.70;;;1.37;;
67861;SDS011;54665;51.462;6.698;2024-03-02T09:23:26;4.00;;;1.20;;
67861;SDS011;54665;51.462;6.698;2024-03-02T09:25:27;3.40;;;1.33;;
67861;SDS011;54665;51.462;6.698;2024-03-02T09:27:27;3.80;;;1.40;;
67861;SDS011;54665;51.462;6.698;2024-03-02T09:29:27;3.70;;;1.23;;
67861;SDS011;54665;51.462;6.698;2024-03-02T09:31:27;3.93;;;1.43;;
67861;SDS011;54665;51.462;6.698;2024-03-02T09:33:28;2.63;;;1.00;;
67861;SDS011;54665;51.462;6.698;2024-03-02T09:35:28;4.43;;;1.27;;
67861;SDS011;54665;51.462;6.698;2024-03-02T09:37:28;3.03;;;1.40;;
67861;SDS011;54665;51.462;6.698;2024-03-02T09:39:29;6.63;;;1.53;;
67861;SDS011;54665;51.462;6.698;2024-03-02T09:41:29;3.80;;;1.50;;
67861;SDS011;54665;51.462;6.698;2024-03-02T09:43:29;2.83;;;1.10;;
67861;SDS011;54665;51.462;6.698;2024-03-02T09:45:30;3.50;;;1.30;;
67861;SDS011;54665;51.462;6.698;2024-03-02T09:47:30;3.00;;;1.30;;
67861;SDS011;54665;51.462;6.698;2024-03-02T09:49:30;2.27;;;0.70;;
67861;SDS011;54665;51.462;6.698;2024-03-02T09:51:31;2.75;;;0.80;;
67861;SDS011;54665;51.462;6.698;2024-03-02T09:53:32;2.40;;;1.00;;
67861;SDS011;54665;51.462;6.698;2024-03-02T09:55:33;2.50;;;0.75;;
67861;SDS011;54665;51.462;6.698;2024-03-02T09:57:33;3.00;;;1.00;;
67861;SDS011;54665;51.462;6.698;2024-03-02T09:59:34;1.80;;;0.80;;
67861;SDS011;54665;51.462;6.698;2024-03-02T10:01:34;4.10;;;1.00;;
67861;SDS011;54665;51.462;6.698;2024-03-02T10:03:36;4.43;;;0.90;;
67861;SDS011;54665;51.462;6.698;2024-03-02T10:05:36;2.03;;;0.80;;
67861;SDS011;54665;51.462;6.698;2024-03-02T10:07:37;2.17;;;0.80;;
67861;SDS011;54665;51.462;6.698;2024-03-02T10:09:37;2.93;;;0.90;;
67861;SDS011;54665;51.462;6.698;2024-03-02T10:11:38;2.60;;;1.00;;
67861;SDS011;54665;51.462;6.698;2024-03-02T10:13:38;2.05;;;0.80;;
67861;SDS011;54665;51.462;6.698;2024-03-02T10:15:39;2.33;;;0.90;;
67861;SDS011;54665;51.462;6.698;2024-03-02T10:17:40;3.13;;;0.80;;
67861;SDS011;54665;51.462;6.698;2024-03-02T10:19:41;1.23;;;0.50;;
67861;SDS011;54665;51.462;6.698;2024-03-02T10:21:41;1.97;;;0.60;;
67861;SDS011;54665;51.462;6.698;2024-03-02T10:23:41;2.00;;;0.50;;
67861;SDS011;54665;51.462;6.698;2024-03-02T10:25:42;1.70;;;0.50;;
67861;SDS011;54665;51.462;6.698;2024-03-02T10:27:43;1.20;;;0.40;;
67861;SDS011;54665;51.462;6.698;2024-03-02T10:29:46;1.67;;;0.50;;
67861;SDS011;54665;51.462;6.698;2024-03-02T10:31:47;2.72;;;0.80;;
67861;SDS011;54665;51.462;6.698;2024-03-02T10:33:47;1.63;;;0.60;;
67861;SDS011;54665;51.462;6.698;2024-03-02T10:35:48;5.70;;;0.67;;
67861;SDS011;54665;51.462;6.698;2024-03-02T10:37:50;2.05;;;0.60;;
67861;SDS011;54665;51.462;6.698;2024-03-02T10:39:51;1.77;;;0.50;;
67861;SDS011;54665;51.462;6.698;2024-03-02T10:41:52;3.78;;;0.80;;
67861;SDS011;54665;51.462;6.698;2024-03-02T10:43:54;4.22;;;0.95;;
67861;SDS011;54665;51.462;6.698;2024-03-02T10:45:56;3.13;;;0.90;;
67861;SDS011;54665;51.462;6.698;2024-03-02T10:47:57;3.50;;;1.05;;
67861;SDS011;54665;51.462;6.698;2024-03-02T10:49:59;2.65;;;1.00;;
67861;SDS011;54665;51.462;6.698;2024-03-02T10:52:01;2.13;;;0.80;;
67861;SDS011;54665;51.462;6.698;2024-03-02T10:54:02;2.60;;;0.80;;
67861;SDS011;54665;51.462;6.698;2024-03-02T10:56:03;2.25;;;0.90;;
67861;SDS011;54665;51.462;6.698;2024-03-02T10:58:07;3.30;;;1.00;;
67861;SDS011;54665;51.462;6.698;2024-03-02T11:00:12;2.45;;;0.80;;
67861;SDS011;54665;51.462;6.698;2024-03-02T11:02:13;2.55;;;0.80;;
67861;SDS011;54665;51.462;6.698;2024-03-02T11:04:18;2.38;;;0.80;;
67861;SDS011;54665;51.462;6.698;2024-03-02T11:06:18;2.93;;;0.80;;
67861;SDS011;54665;51.462;6.698;2024-03-02T11:08:19;1.88;;;0.70;;
67861;SDS011;54665;51.462;6.698;2024-03-02T11:10:21;3.83;;;0.85;;
67861;SDS011;54665;51.462;6.698;2024-03-02T11:14:30;2.90;;;1.00;;
67861;SDS011;54665;51.462;6.698;2024-03-02T11:16:33;2.67;;;1.00;;
67861;SDS011;54665;51.462;6.698;2024-03-02T11:18:34;2.03;;;0.70;;
67861;SDS011;54665;51.462;6.698;2024-03-02T11:20:38;3.43;;;1.00;;
67861;SDS011;54665;51.462;6.698;2024-03-02T11:22:39;3.33;;;0.75;;
67861;SDS011;54665;51.462;6.698;2024-03-02T11:24:47;1.45;;;0.68;;
67861;SDS011;54665;51.462;6.698;2024-03-02T11:26:51;1.77;;;0.70;;
67861;SDS011;54665;51.462;6.698;2024-03-02T11:28:51;2.53;;;0.60;;
67861;SDS011;54665;51.462;6.698;2024-03-02T11:30:52;3.70;;;0.70;;
67861;SDS011;54665;51.462;6.698;2024-03-02T11:32:55;1.97;;;0.63;;
67861;SDS011;54665;51.462;6.698;2024-03-02T11:34:56;2.03;;;0.70;;
67861;SDS011;54665;51.462;6.698;2024-03-02T11:36:56;2.20;;;0.80;;
67861;SDS011;54665;51.462;6.698;2024-03-02T11:39:04;1.33;;;0.70;;
67861;SDS011;54665;51.462;6.698;2024-03-02T11:41:07;1.88;;;0.80;;
67861;SDS011;54665;51.462;6.698;2024-03-02T11:43:08;1.92;;;0.88;;
67861;SDS011;54665;51.462;6.698;2024-03-02T11:45:09;1.77;;;0.80;;
67861;SDS011;54665;51.462;6.698;2024-03-02T11:47:10;2.53;;;0.80;;
67861;SDS011;54665;51.462;6.698;2024-03-02T11:49:14;1.63;;;0.80;;
67861;SDS011;54665;51.462;6.698;2024-03-02T11:51:15;2.38;;;0.90;;
67861;SDS011;54665;51.462;6.698;2024-03-02T11:53:16;2.08;;;0.90;;
67861;SDS011;54665;51.462;6.698;2024-03-02T11:55:17;4.57;;;1.00;;
67861;SDS011;54665;51.462;6.698;2024-03-02T11:57:20;2.45;;;1.10;;
67861;SDS011;54665;51.462;6.698;2024-03-02T11:59:21;2.20;;;0.90;;
67861;SDS011;54665;51.462;6.698;2024-03-02T12:01:23;2.85;;;0.90;;
67861;SDS011;54665;51.462;6.698;2024-03-02T12:03:23;2.43;;;1.00;;
67861;SDS011;54665;51.462;6.698;2024-03-02T12:05:24;2.53;;;0.90;;
67861;SDS011;54665;51.462;6.698;2024-03-02T12:07:26;1.73;;;0.80;;
67861;SDS011;54665;51.462;6.698;2024-03-02T12:09:27;2.10;;;0.70;;
67861;SDS011;54665;51.462;6.698;2024-03-02T12:11:28;3.38;;;1.13;;
67861;SDS011;54665;51.462;6.698;2024-03-02T12:13:28;2.63;;;1.20;;